Time;durP1;ratioP1;P1;durP2;ratioP2;P2;SDS_P1;SDS_P2;PMS_P1;PMS_P2;Temp;Humidity;BMP_temperature;BMP_pressure;BME280_temperature;BME280_humidity;BME280_pressure;Samples;Min_cycle;Max_cycle;Signal;HPM_P1;HPM_P2
2023/02/02 00:00:00;;;;;;;1.83;1.33;;;;;;;1.95;100.00;98463.69;4192772;28;20040;-75
2023/02/02 00:02:01;;;;;;;2.88;1.80;;;;;;;1.95;100.00;98474.59;4196883;28;20041;-75
2023/02/02 00:04:02;;;;;;;3.85;1.83;;;;;;;1.95;100.00;98469.13;4189904;28;20220;-75
2023/02/02 00:06:03;;;;;;;4.18;1.92;;;;;;;1.87;100.00;98470.75;4191610;28;20075;-75
2023/02/02 00:08:03;;;;;;;3.15;1.80;;;;;;;1.82;100.00;98464.63;4194311;28;20460;-76
2023/02/02 00:10:04;;;;;;;6.88;2.00;;;;;;;1.82;100.00;98465.47;4190919;28;20364;-75
2023/02/02 00:12:04;;;;;;;5.38;1.75;;;;;;;1.75;100.00;98467.06;4191755;28;20051;-75
2023/02/02 00:14:06;;;;;;;4.95;2.35;;;;;;;1.80;100.00;98464.16;4191067;28;20059;-75
2023/02/02 00:16:25;;;;;;;2.85;1.80;;;;;;;1.83;100.00;98463.53;4192677;28;20107;-75
2023/02/02 00:18:25;;;;;;;3.22;2.03;;;;;;;1.83;100.00;98474.44;4191157;28;20056;-75
2023/02/02 00:20:25;;;;;;;3.30;2.05;;;;;;;1.81;100.00;98471.22;4191580;28;20045;-75
2023/02/02 00:22:26;;;;;;;2.97;1.80;;;;;;;1.82;100.00;98478.28;4191668;28;20036;-75
2023/02/02 00:24:27;;;;;;;2.85;1.73;;;;;;;1.86;100.00;98471.88;4191460;28;20496;-75
2023/02/02 00:26:28;;;;;;;5.82;2.10;;;;;;;1.94;100.00;98483.91;4191922;28;20060;-75
2023/02/02 00:28:28;;;;;;;5.15;2.30;;;;;;;1.93;100.00;98487.75;4191338;28;20138;-75
2023/02/02 00:30:28;;;;;;;3.80;1.75;;;;;;;1.87;100.00;98478.94;4191773;28;20056;-75
2023/02/02 00:32:28;;;;;;;4.22;2.03;;;;;;;1.93;100.00;98482.31;4191115;28;20383;-75
2023/02/02 00:34:29;;;;;;;4.13;2.55;;;;;;;1.87;100.00;98489.03;4190658;28;20051;-75
2023/02/02 00:36:29;;;;;;;4.93;3.45;;;;;;;1.92;100.00;98486.97;4196007;28;20041;-75
2023/02/02 00:38:30;;;;;;;5.90;2.45;;;;;;;1.93;100.00;98493.22;4191807;28;20044;-75
2023/02/02 00:40:30;;;;;;;8.05;2.65;;;;;;;1.96;100.00;98493.38;4191637;28;20048;-75
2023/02/02 00:42:31;;;;;;;6.72;2.10;;;;;;;1.93;100.00;98485.03;4190435;28;20528;-75
2023/02/02 00:46:50;;;;;;;5.13;2.10;;;;;;;1.92;100.00;98491.63;4198509;28;20050;-75
2023/02/02 00:48:50;;;;;;;15.93;2.20;;;;;;;1.95;100.00;98488.25;4191043;28;20045;-75
2023/02/02 00:50:52;;;;;;;4.05;1.73;;;;;;;1.96;100.00;98487.91;4191618;28;20040;-75
2023/02/02 00:52:52;;;;;;;5.05;1.95;;;;;;;1.96;100.00;98490.63;4190674;28;20492;-75
2023/02/02 00:54:52;;;;;;;7.20;2.42;;;;;;;2.04;100.00;98494.50;4190459;28;20043;-75
2023/02/02 00:56:53;;;;;;;8.25;2.13;;;;;;;2.10;100.00;98495.94;4190822;28;20224;-75
2023/02/02 00:58:53;;;;;;;7.13;1.80;;;;;;;2.03;100.00;98489.38;4191391;28;20171;-75
2023/02/02 01:00:53;;;;;;;5.53;1.98;;;;;;;1.98;100.00;98495.78;4191057;28;20044;-75
2023/02/02 01:02:54;;;;;;;2.95;1.70;;;;;;;1.91;100.00;98496.28;4191904;28;20041;-75
2023/02/02 01:04:55;;;;;;;4.00;1.80;;;;;;;1.91;100.00;98485.38;4198665;28;20059;-75
2023/02/02 01:06:55;;;;;;;6.70;1.92;;;;;;;1.95;100.00;98499.16;4190949;28;20036;-75
2023/02/02 01:08:56;;;;;;;7.57;2.58;;;;;;;2.00;100.00;98496.28;4190021;28;20579;-75
2023/02/02 01:10:58;;;;;;;3.80;1.58;;;;;;;2.08;100.00;98502.84;4192376;28;20036;-75
2023/02/02 01:12:59;;;;;;;;;;;;;;;2.04;100.00;98499.94;4190244;28;20044;-75
2023/02/02 01:15:00;;;;;;;5.35;1.67;;;;;;;2.04;100.00;98502.69;4190987;28;20210;-74
2023/02/02 01:17:00;;;;;;;3.95;1.48;;;;;;;2.06;100.00;98513.28;4191438;28;20120;-75
2023/02/02 01:19:01;;;;;;;4.43;2.20;;;;;;;2.02;100.00;98502.22;4191397;28;20068;-75
2023/02/02 01:21:07;;;;;;;4.53;1.70;;;;;;;2.06;100.00;98511.34;4192853;28;20055;-75
2023/02/02 01:23:08;;;;;;;6.22;2.00;;;;;;;2.06;100.00;98514.06;4191626;28;20308;-75
2023/02/02 01:25:09;;;;;;;8.20;2.10;;;;;;;2.02;100.00;98509.59;4195534;28;20047;-75
2023/02/02 01:27:09;;;;;;;4.28;1.80;;;;;;;2.10;100.00;98516.97;4190496;28;20443;-75
2023/02/02 01:29:11;;;;;;;10.05;2.10;;;;;;;2.13;100.00;98525.31;4193409;28;20536;-75
2023/02/02 01:31:14;;;;;;;3.58;2.15;;;;;;;2.10;100.00;98520.50;4193266;28;20124;-75
2023/02/02 01:33:15;;;;;;;7.65;2.38;;;;;;;2.05;100.00;98519.84;4189532;28;20380;-75
2023/02/02 01:35:15;;;;;;;2.47;1.48;;;;;;;2.06;100.00;98514.06;4190008;28;20051;-75
2023/02/02 01:37:16;;;;;;;8.60;2.22;;;;;;;2.05;100.00;98512.47;4191171;28;20040;-75
2023/02/02 01:39:16;;;;;;;5.40;2.17;;;;;;;2.13;100.00;98513.59;4190476;28;20699;-75
2023/02/02 01:41:22;;;;;;;3.58;1.90;;;;;;;2.09;100.00;98509.91;4194558;28;20051;-75
2023/02/02 01:43:42;;;;;;;5.07;1.83;;;;;;;2.11;100.00;98510.41;4189541;28;20064;-75
2023/02/02 01:45:42;;;;;;;8.02;1.95;;;;;;;2.03;100.00;98509.25;4189985;28;20101;-75
2023/02/02 01:47:47;;;;;;;5.78;1.90;;;;;;;2.06;100.00;98513.28;4192818;28;20415;-75
2023/02/02 01:49:48;;;;;;;4.65;2.40;;;;;;;2.07;100.00;98518.44;4190187;28;20064;-75
2023/02/02 01:51:52;;;;;;;6.90;2.15;;;;;;;2.00;100.00;98509.91;4191112;28;20040;-75
2023/02/02 01:53:54;;;;;;;4.00;1.90;;;;;;;1.94;100.00;98517.44;4190237;28;20037;-75
2023/02/02 01:55:55;;;;;;;5.55;2.10;;;;;;;1.89;100.00;98520.31;4189562;28;20045;-75
2023/02/02 01:58:21;;;;;;;8.40;2.00;;;;;;;1.85;100.00;98524.03;4190824;28;20044;-75
2023/02/02 02:00:24;;;;;;;6.28;2.15;;;;;;;1.93;100.00;98528.69;4192925;28;20384;-75
2023/02/02 02:02:26;;;;;;;;;;;;;;;1.94;100.00;98530.28;4189431;28;20053;-75
2023/02/02 02:04:29;;;;;;;8.48;2.30;;;;;;;1.92;100.00;98529.81;4190641;28;19916;-75
2023/02/02 02:06:29;;;;;;;7.20;1.98;;;;;;;1.97;100.00;98532.38;4191296;28;20131;-75
2023/02/02 02:08:37;;;;;;;11.27;2.95;;;;;;;1.98;100.00;98537.50;4191056;28;20064;-76
2023/02/02 02:10:38;;;;;;;5.53;2.10;;;;;;;1.95;100.00;98542.81;4193733;28;20067;-75
2023/02/02 02:12:38;;;;;;;6.00;1.67;;;;;;;1.91;100.00;98537.19;4193341;28;20049;-75
2023/02/02 02:17:41;;;;;;;3.35;1.90;;;;;;;1.95;100.00;98535.44;4192721;28;20392;-75
2023/02/02 02:27:41;;;;;;;6.63;2.05;;;;;;;1.91;100.00;98550.84;4196551;28;20079;-75
2023/02/02 02:30:01;;;;;;;5.65;1.70;;;;;;;1.86;100.00;98551.00;4194773;28;20094;-75
2023/02/02 02:32:19;;;;;;;5.50;2.03;;;;;;;1.83;100.00;98535.25;4192730;28;20060;-75
2023/02/02 02:34:38;;;;;;;8.25;2.33;;;;;;;1.85;100.00;98548.59;4193291;28;20115;-75
2023/02/02 02:37:05;;;;;;;4.93;1.75;;;;;;;1.90;100.00;98551.13;4193466;28;20071;-75
2023/02/02 02:39:10;;;;;;;4.97;1.52;;;;;;;1.88;100.00;98540.56;4199024;28;20048;-75
2023/02/02 02:41:18;;;;;;;4.70;1.60;;;;;;;1.82;100.00;98554.66;4193588;28;20043;-75
2023/02/02 02:43:29;;;;;;;4.68;1.52;;;;;;;1.80;100.00;98546.78;4191817;28;20385;-75
2023/02/02 02:45:32;;;;;;;6.40;1.95;;;;;;;1.77;100.00;98561.09;4193133;28;20484;-75
2023/02/02 02:47:34;;;;;;;2.90;1.48;;;;;;;1.74;100.00;98553.56;4192969;28;20044;-75
2023/02/02 02:49:42;;;;;;;4.15;1.77;;;;;;;1.79;100.00;98566.22;4193742;28;20777;-75
2023/02/02 02:51:45;;;;;;;3.20;2.47;;;;;;;1.79;100.00;98567.03;4192749;28;20056;-75
2023/02/02 02:53:45;;;;;;;5.13;1.60;;;;;;;1.81;100.00;98553.06;4192423;28;20039;-75
2023/02/02 02:56:00;;;;;;;3.35;1.52;;;;;;;1.71;100.00;98558.81;4193358;28;20083;-75
2023/02/02 02:58:17;;;;;;;2.30;1.27;;;;;;;1.66;100.00;98557.06;4194402;28;20040;-75
2023/02/02 03:00:35;;;;;;;8.65;1.77;;;;;;;1.61;100.00;98558.00;4192990;28;20532;-75
2023/02/02 03:02:56;;;;;;;7.03;1.88;;;;;;;1.61;100.00;98560.72;4191357;28;20052;-75
2023/02/02 03:05:16;;;;;;;4.28;1.45;;;;;;;1.64;100.00;98551.09;4192761;28;20397;-75
2023/02/02 03:07:31;;;;;;;4.20;1.50;;;;;;;1.52;100.00;98556.38;4198536;28;20135;-75
2023/02/02 03:09:39;;;;;;;5.13;1.35;;;;;;;1.46;100.00;98563.09;4193240;28;20263;-75
2023/02/02 03:11:40;;;;;;;8.20;1.70;;;;;;;1.42;100.00;98557.47;4193019;28;20059;-75
2023/02/02 03:13:41;;;;;;;4.82;1.88;;;;;;;1.59;100.00;98560.25;4192229;28;20422;-75
2023/02/02 03:15:45;;;;;;;7.23;1.60;;;;;;;1.68;100.00;98561.06;4192873;28;20095;-75
2023/02/02 03:17:48;;;;;;;10.35;2.00;;;;;;;1.68;100.00;98549.34;4193785;28;20074;-75
2023/02/02 03:19:49;;;;;;;4.22;1.40;;;;;;;1.66;100.00;98552.41;4192239;28;20169;-75
2023/02/02 03:21:49;;;;;;;6.43;2.15;;;;;;;1.68;100.00;98549.34;4192130;28;20415;-75
2023/02/02 03:23:49;;;;;;;4.70;2.00;;;;;;;1.82;100.00;98546.47;4196171;28;20045;-75
2023/02/02 03:25:50;;;;;;;9.88;1.40;;;;;;;1.92;100.00;98554.38;4192948;28;20056;-75
2023/02/02 03:27:51;;;;;;;6.85;1.80;;;;;;;1.94;100.00;98549.41;4192421;28;20045;-75
2023/02/02 03:29:52;;;;;;;8.18;1.67;;;;;;;2.04;100.00;98556.47;4191559;28;20056;-75
2023/02/02 03:31:52;;;;;;;8.27;1.90;;;;;;;2.12;100.00;98550.22;4193000;28;20044;-75
2023/02/02 03:33:54;;;;;;;8.63;2.22;;;;;;;2.06;100.00;98560.47;4191289;28;20040;-75
2023/02/02 03:35:54;;;;;;;9.98;1.95;;;;;;;2.12;100.00;98555.66;4192543;28;20062;-74
2023/02/02 03:37:54;;;;;;;2.72;1.27;;;;;;;2.23;100.00;98568.69;4192935;28;20108;-75
2023/02/02 03:39:54;;;;;;;8.05;1.60;;;;;;;2.20;100.00;98573.97;4192334;28;20040;-75
2023/02/02 03:41:55;;;;;;;4.38;1.35;;;;;;;2.14;100.00;98569.78;4192183;28;20074;-74
2023/02/02 03:43:55;;;;;;;8.70;1.60;;;;;;;2.11;100.00;98575.91;4191470;28;20194;-74
2023/02/02 03:46:03;;;;;;;5.75;1.70;;;;;;;2.06;100.00;98576.03;4192400;28;21915;-74
2023/02/02 03:48:04;;;;;;;4.32;1.30;;;;;;;2.10;100.00;98574.28;4193586;28;20109;-74
2023/02/02 03:50:06;;;;;;;5.47;1.42;;;;;;;1.99;100.00;98573.81;4192714;28;20028;-75
2023/02/02 03:52:07;;;;;;;4.07;1.65;;;;;;;2.08;100.00;98582.81;4192212;28;20056;-75
2023/02/02 03:54:07;;;;;;;5.00;1.48;;;;;;;2.04;100.00;98589.22;4191689;28;20036;-74
2023/02/02 03:56:08;;;;;;;9.40;1.60;;;;;;;2.08;100.00;98593.72;4192499;28;20469;-75
2023/02/02 03:58:08;;;;;;;5.20;1.58;;;;;;;2.02;100.00;98575.91;4191548;28;20135;-74
2023/02/02 04:00:09;;;;;;;7.18;1.50;;;;;;;2.02;100.00;98584.06;4192181;28;20032;-74
2023/02/02 04:02:09;;;;;;;6.78;1.52;;;;;;;2.10;100.00;98594.22;4195027;28;20040;-74
2023/02/02 04:04:09;;;;;;;8.05;1.70;;;;;;;2.11;100.00;98590.34;4191805;28;20444;-75
2023/02/02 04:06:10;;;;;;;7.45;2.05;;;;;;;2.06;100.00;98598.69;4195610;28;20398;-75
2023/02/02 04:08:10;;;;;;;7.63;1.92;;;;;;;2.07;100.00;98594.03;4195243;28;20032;-75
2023/02/02 04:10:10;;;;;;;4.72;1.33;;;;;;;2.08;100.00;98598.38;4190904;28;20035;-74
2023/02/02 04:12:11;;;;;;;5.57;1.65;;;;;;;2.07;100.00;98602.22;4191664;28;20388;-75
2023/02/02 04:14:11;;;;;;;7.88;1.33;;;;;;;2.04;100.00;98600.13;4189461;28;20452;-74
2023/02/02 04:16:11;;;;;;;7.88;2.38;;;;;;;2.07;100.00;98591.28;4192160;28;20119;-75
2023/02/02 04:18:12;;;;;;;10.40;2.47;;;;;;;2.07;100.00;98600.31;4193326;28;20548;-75
2023/02/02 04:20:12;;;;;;;4.65;1.30;;;;;;;2.10;100.00;98607.84;4191242;28;20040;-75
2023/02/02 04:22:13;;;;;;;10.48;1.85;;;;;;;2.04;100.00;98609.13;4192297;28;20021;-74
2023/02/02 04:24:13;;;;;;;6.57;1.73;;;;;;;2.06;100.00;98614.25;4194828;28;20460;-74
2023/02/02 04:26:14;;;;;;;4.63;1.50;;;;;;;2.13;100.00;98623.56;4193819;28;20036;-75
2023/02/02 04:28:14;;;;;;;9.95;1.60;;;;;;;2.08;100.00;98621.03;4190069;28;20036;-74
2023/02/02 04:30:15;;;;;;;6.22;1.50;;;;;;;2.00;100.00;98610.09;4190872;28;20033;-74
2023/02/02 04:32:16;;;;;;;5.95;1.50;;;;;;;2.04;100.00;98622.75;4191243;28;20373;-75
2023/02/02 04:34:16;;;;;;;8.38;2.03;;;;;;;2.06;100.00;98627.91;4190906;28;20105;-74
2023/02/02 04:36:17;;;;;;;9.63;2.20;;;;;;;2.11;100.00;98641.41;4195421;28;20032;-74
2023/02/02 04:38:17;;;;;;;7.07;1.65;;;;;;;2.14;100.00;98633.38;4191939;28;20028;-74
2023/02/02 04:40:18;;;;;;;3.13;1.23;;;;;;;2.16;100.00;98633.88;4193514;28;20110;-75
2023/02/02 04:42:18;;;;;;;7.40;1.90;;;;;;;2.20;100.00;98632.09;4191201;28;20422;-75
2023/02/02 04:44:19;;;;;;;6.65;2.05;;;;;;;2.22;100.00;98638.03;4190458;28;20031;-74
2023/02/02 04:46:19;;;;;;;5.85;1.33;;;;;;;2.21;100.00;98641.91;4190416;28;20028;-74
2023/02/02 04:48:19;;;;;;;3.17;1.30;;;;;;;2.18;100.00;98639.81;4192060;28;20384;-75
2023/02/02 04:50:20;;;;;;;8.60;1.63;;;;;;;2.19;100.00;98638.69;4195652;28;20024;-75
2023/02/02 04:52:20;;;;;;;5.90;1.30;;;;;;;2.12;100.00;98638.34;4190999;28;20044;-74
2023/02/02 04:54:20;;;;;;;8.63;1.75;;;;;;;2.20;100.00;98650.41;4193878;28;20047;-75
2023/02/02 04:56:21;;;;;;;6.43;1.67;;;;;;;2.20;100.00;98653.94;4196342;28;20100;-75
2023/02/02 04:58:21;;;;;;;7.20;1.52;;;;;;;2.13;100.00;98645.41;4191517;28;20057;-74
2023/02/02 05:00:22;;;;;;;5.15;1.98;;;;;;;2.09;100.00;98649.91;4190344;28;20048;-74
2023/02/02 05:02:22;;;;;;;5.07;1.95;;;;;;;2.12;100.00;98640.28;4192318;28;20067;-74
2023/02/02 05:04:23;;;;;;;2.80;1.52;;;;;;;2.13;100.00;98639.16;4190824;28;20040;-75
2023/02/02 05:06:23;;;;;;;4.00;1.35;;;;;;;2.10;100.00;98637.88;4192461;28;20052;-75
2023/02/02 05:08:23;;;;;;;7.25;2.00;;;;;;;2.17;100.00;98649.13;4193838;28;20115;-75
2023/02/02 05:10:24;;;;;;;3.97;1.48;;;;;;;2.12;100.00;98643.81;4192088;28;20106;-75
2023/02/02 05:12:24;;;;;;;5.20;1.35;;;;;;;2.02;100.00;98638.66;4192018;28;20052;-75
2023/02/02 05:14:25;;;;;;;6.78;1.25;;;;;;;1.93;100.00;98646.03;4196841;28;20311;-75
2023/02/02 05:16:25;;;;;;;6.00;1.80;;;;;;;1.88;100.00;98654.34;4192073;28;20485;-75
2023/02/02 05:18:25;;;;;;;5.40;1.40;;;;;;;1.78;100.00;98660.91;4191605;28;20568;-75
2023/02/02 05:20:26;;;;;;;3.78;1.63;;;;;;;1.71;100.00;98660.56;4193982;28;20132;-75
2023/02/02 05:22:26;;;;;;;5.93;2.08;;;;;;;1.67;100.00;98663.13;4191000;28;20048;-75
2023/02/02 05:24:26;;;;;;;7.57;2.00;;;;;;;1.63;100.00;98667.56;4190674;28;20044;-75
2023/02/02 05:26:27;;;;;;;8.20;3.53;;;;;;;1.62;100.00;98659.72;4191284;28;20546;-75
2023/02/02 05:28:28;;;;;;;13.82;5.68;;;;;;;1.64;100.00;98663.72;4189833;28;20052;-74
2023/02/02 05:30:28;;;;;;;15.27;6.22;;;;;;;1.65;100.00;98673.50;4192536;28;20055;-75
2023/02/02 05:32:28;;;;;;;14.02;5.70;;;;;;;1.64;100.00;98671.09;4190031;28;20492;-75
2023/02/02 05:34:29;;;;;;;14.57;2.75;;;;;;;1.77;100.00;98674.88;4197857;28;20105;-75
2023/02/02 05:36:29;;;;;;;7.45;2.50;;;;;;;1.72;100.00;98675.00;4192842;28;20049;-74
2023/02/02 05:38:30;;;;;;;6.78;4.28;;;;;;;1.67;100.00;98673.22;4191440;28;20044;-75
2023/02/02 05:40:30;;;;;;;9.10;3.40;;;;;;;1.63;100.00;98681.22;4188604;28;20044;-75
2023/02/02 05:42:30;;;;;;;5.07;2.50;;;;;;;1.58;100.00;98684.09;4195124;28;20037;-75
2023/02/02 05:44:31;;;;;;;8.35;3.60;;;;;;;1.52;100.00;98681.81;4193028;28;20056;-75
2023/02/02 05:46:31;;;;;;;6.45;3.95;;;;;;;1.48;100.00;98684.34;4158295;28;20087;-75
2023/02/02 05:48:31;;;;;;;8.02;3.42;;;;;;;1.48;100.00;98676.16;4194911;28;20420;-75
2023/02/02 05:50:32;;;;;;;8.07;2.75;;;;;;;1.51;100.00;98682.94;4193182;28;20077;-75
2023/02/02 05:52:34;;;;;;;5.97;2.97;;;;;;;1.47;100.00;98680.00;4192803;28;20072;-75
2023/02/02 05:54:34;;;;;;;5.25;2.10;;;;;;;1.43;100.00;98679.03;4190415;28;20489;-75
2023/02/02 05:56:34;;;;;;;5.70;2.38;;;;;;;1.38;100.00;98682.69;4189206;28;20052;-75
2023/02/02 05:58:35;;;;;;;6.38;2.10;;;;;;;1.33;100.00;98677.41;4193647;28;20160;-75
2023/02/02 06:00:35;;;;;;;5.63;2.10;;;;;;;1.33;100.00;98680.13;4194042;28;20357;-75
2023/02/02 06:02:35;;;;;;;7.93;2.22;;;;;;;1.35;100.00;98683.31;4193444;28;20072;-75
2023/02/02 06:04:36;;;;;;;10.05;3.65;;;;;;;1.35;100.00;98677.88;4189266;28;20135;-75
2023/02/02 06:06:37;;;;;;;10.40;4.93;;;;;;;1.41;100.00;98684.00;4192072;28;20085;-75
2023/02/02 06:08:38;;;;;;;5.20;2.63;;;;;;;1.36;100.00;98679.47;4191693;28;20123;-75
2023/02/02 06:10:40;;;;;;;6.30;1.95;;;;;;;1.37;100.00;98683.81;4193697;28;20087;-75
2023/02/02 06:12:40;;;;;;;8.02;1.80;;;;;;;1.37;100.00;98686.53;4193452;28;20040;-75
2023/02/02 06:14:41;;;;;;;9.75;2.35;;;;;;;1.51;100.00;98680.22;4192895;28;20039;-75
2023/02/02 06:16:41;;;;;;;9.07;2.17;;;;;;;1.56;100.00;98683.59;4193709;28;20036;-75
2023/02/02 06:18:41;;;;;;;9.40;2.35;;;;;;;1.50;100.00;98684.06;4193003;28;20507;-75
2023/02/02 06:20:42;;;;;;;8.27;2.65;;;;;;;1.55;100.00;98681.19;4189234;28;20036;-75
2023/02/02 06:22:42;;;;;;;10.55;3.83;;;;;;;1.50;100.00;98682.13;4187140;28;20040;-75
2023/02/02 06:24:43;;;;;;;14.05;7.00;;;;;;;1.49;100.00;98691.44;4190493;28;20296;-75
2023/02/02 06:26:43;;;;;;;13.55;5.50;;;;;;;1.48;100.00;98692.53;4189238;28;20036;-75
2023/02/02 06:28:49;;;;;;;9.23;2.10;;;;;;;1.56;100.00;98690.97;4188107;28;20083;-75
2023/02/02 06:30:49;;;;;;;7.00;2.28;;;;;;;1.62;100.00;98695.16;4186843;28;20496;-75
2023/02/02 06:32:49;;;;;;;5.90;2.30;;;;;;;1.64;100.00;98701.91;4184286;28;20060;-75
2023/02/02 06:34:50;;;;;;;3.15;1.52;;;;;;;1.65;100.00;98711.69;4190939;28;20049;-75
2023/02/02 06:36:50;;;;;;;7.03;1.92;;;;;;;1.67;100.00;98714.13;4191033;28;20068;-75
2023/02/02 06:38:53;;;;;;;5.90;1.95;;;;;;;1.67;100.00;98720.41;4190959;28;20503;-75
2023/02/02 06:40:53;;;;;;;5.18;1.38;;;;;;;1.66;100.00;98709.81;4194482;28;20143;-75
2023/02/02 06:42:58;;;;;;;6.40;2.00;;;;;;;1.75;100.00;98715.28;4191014;28;20065;-75
2023/02/02 06:44:58;;;;;;;7.20;2.10;;;;;;;1.81;100.00;98714.00;4196086;28;20155;-75
2023/02/02 06:46:59;;;;;;;4.03;1.60;;;;;;;1.85;100.00;98702.19;4190892;28;20079;-75
2023/02/02 06:48:59;;;;;;;6.03;2.15;;;;;;;1.89;100.00;98710.53;4188658;28;20052;-75
2023/02/02 06:51:00;;;;;;;8.63;2.00;;;;;;;1.93;100.00;98703.31;4196258;28;20044;-75
2023/02/02 06:53:00;;;;;;;10.20;2.30;;;;;;;1.94;100.00;98703.00;4189661;28;20186;-74
2023/02/02 06:55:00;;;;;;;7.40;1.98;;;;;;;2.04;100.00;98701.91;4192328;28;20037;-75
2023/02/02 06:57:01;;;;;;;4.88;1.60;;;;;;;2.15;100.00;98710.59;4193154;28;20590;-75
2023/02/02 06:59:01;;;;;;;5.15;1.92;;;;;;;2.21;100.00;98715.59;4193864;28;20384;-75
2023/02/02 07:01:06;;;;;;;7.25;2.63;;;;;;;2.21;100.00;98712.88;4193988;28;20045;-75
2023/02/02 07:03:07;;;;;;;9.25;3.33;;;;;;;2.17;100.00;98717.38;4192328;28;20036;-75
2023/02/02 07:05:07;;;;;;;7.82;2.92;;;;;;;2.14;100.00;98704.34;4194412;28;20037;-75
2023/02/02 07:07:07;;;;;;;9.35;4.18;;;;;;;2.11;100.00;98710.44;4197620;28;20854;-75
2023/02/02 07:09:08;;;;;;;4.15;1.92;;;;;;;2.18;100.00;98712.72;4193167;28;20043;-75
2023/02/02 07:11:09;;;;;;;6.18;2.45;;;;;;;2.20;100.00;98705.81;4193285;28;20040;-75
2023/02/02 07:13:10;;;;;;;4.80;2.33;;;;;;;2.35;100.00;98714.69;4192369;28;20377;-75
2023/02/02 07:15:10;;;;;;;3.55;1.63;;;;;;;2.40;100.00;98729.00;4192136;28;20059;-75
2023/02/02 07:17:11;;;;;;;3.13;2.05;;;;;;;2.48;100.00;98719.19;4193073;28;20131;-75
2023/02/02 07:19:11;;;;;;;5.10;2.55;;;;;;;2.51;100.00;98726.78;4192747;28;20044;-75
2023/02/02 07:21:20;;;;;;;3.47;1.40;;;;;;;2.51;100.00;98733.03;4192976;28;20048;-75
2023/02/02 07:23:20;;;;;;;3.90;1.83;;;;;;;2.53;100.00;98724.50;4191598;28;20302;-75
2023/02/02 07:25:21;;;;;;;4.30;1.55;;;;;;;2.47;100.00;98733.97;4195929;28;20080;-75
2023/02/02 07:27:21;;;;;;;5.50;2.47;;;;;;;2.44;100.00;98729.16;4192932;28;20453;-75
2023/02/02 07:29:22;;;;;;;4.13;1.92;;;;;;;2.39;100.00;98726.56;4192902;28;20497;-75
2023/02/02 07:31:25;;;;;;;4.93;2.00;;;;;;;2.44;100.00;98721.78;4194572;28;20036;-75
2023/02/02 07:33:25;;;;;;;2.58;1.70;;;;;;;2.49;100.00;98720.81;4196587;28;20708;-74
2023/02/02 07:35:26;;;;;;;3.83;2.15;;;;;;;2.56;100.00;98725.78;4195156;28;20075;-75
2023/02/02 07:37:26;;;;;;;2.88;1.75;;;;;;;2.65;100.00;98735.63;4192483;28;20053;-75
2023/02/02 07:39:27;;;;;;;4.65;1.95;;;;;;;2.63;100.00;98721.47;4192562;28;20102;-75
2023/02/02 07:41:27;;;;;;;4.40;2.00;;;;;;;2.58;100.00;98738.03;4193642;28;20064;-75
2023/02/02 07:43:27;;;;;;;2.42;1.27;;;;;;;2.53;100.00;98749.91;4198916;28;20083;-75
2023/02/02 07:45:28;;;;;;;2.70;1.50;;;;;;;2.40;99.26;98755.47;4192523;28;20174;-74
2023/02/02 07:47:28;;;;;;;2.17;1.70;;;;;;;2.42;99.44;98742.34;4192322;28;20044;-74
2023/02/02 07:49:28;;;;;;;1.88;1.63;;;;;;;2.40;100.00;98758.22;4196377;28;20118;-75
2023/02/02 07:51:29;;;;;;;5.35;1.73;;;;;;;2.34;100.00;98749.38;4191882;28;20707;-75
2023/02/02 07:53:29;;;;;;;2.35;1.30;;;;;;;2.37;98.45;98769.78;4189846;28;20044;-75
2023/02/02 07:55:29;;;;;;;2.05;1.20;;;;;;;2.34;99.46;98797.72;4194108;28;20470;-75
2023/02/02 07:57:30;;;;;;;3.65;1.50;;;;;;;2.29;100.00;98784.22;4188946;28;20139;-75
2023/02/02 07:59:30;;;;;;;5.90;2.28;;;;;;;2.29;100.00;98795.13;4190768;28;20616;-75
2023/02/02 08:01:30;;;;;;;4.55;1.92;;;;;;;2.14;100.00;98791.69;4190854;28;20047;-75
2023/02/02 08:03:31;;;;;;;3.80;2.17;;;;;;;2.12;100.00;98799.41;4190771;28;20442;-74
2023/02/02 08:05:33;;;;;;;2.88;1.80;;;;;;;1.97;100.00;98800.59;4190684;28;20040;-75
2023/02/02 08:07:34;;;;;;;6.47;2.90;;;;;;;1.95;100.00;98802.84;4190269;28;20044;-74
2023/02/02 08:09:34;;;;;;;5.22;0.90;;;;;;;1.93;100.00;98826.94;4190846;28;20275;-75
2023/02/02 08:11:36;;;;;;;4.03;1.40;;;;;;;1.82;100.00;98833.78;4194293;28;20071;-75
2023/02/02 08:13:37;;;;;;;4.70;1.80;;;;;;;1.75;100.00;98840.78;4189927;28;20385;-74
2023/02/02 08:15:37;;;;;;;2.55;1.55;;;;;;;1.61;100.00;98846.28;4191819;28;20302;-75
2023/02/02 08:17:38;;;;;;;4.10;2.08;;;;;;;1.51;100.00;98822.00;4197509;28;20041;-75
2023/02/02 08:19:38;;;;;;;5.75;1.30;;;;;;;1.51;100.00;98822.00;4191768;28;20044;-75
2023/02/02 08:21:38;;;;;;;3.55;1.50;;;;;;;1.53;100.00;98831.47;4191956;28;20141;-74
2023/02/02 08:23:41;;;;;;;1.55;0.90;;;;;;;1.47;100.00;98851.00;4192842;28;20539;-75
2023/02/02 08:25:42;;;;;;;5.55;1.50;;;;;;;1.46;100.00;98844.75;4191972;28;20548;-75
2023/02/02 08:27:42;;;;;;;2.78;1.00;;;;;;;1.32;100.00;98865.78;4191895;28;20086;-75
2023/02/02 08:29:42;;;;;;;2.92;1.20;;;;;;;1.22;100.00;98871.47;4191742;28;20037;-75
2023/02/02 08:31:43;;;;;;;4.38;1.58;;;;;;;1.18;100.00;98875.94;4190559;28;20488;-75
2023/02/02 08:33:44;;;;;;;5.47;1.50;;;;;;;1.13;100.00;98872.19;4191471;28;20041;-75
2023/02/02 08:35:46;;;;;;;3.50;0.90;;;;;;;1.13;100.00;98871.38;4191228;28;20056;-75
2023/02/02 08:37:48;;;;;;;2.17;0.80;;;;;;;1.07;100.00;98878.88;4191462;28;20055;-75
2023/02/02 08:39:50;;;;;;;1.10;1.00;;;;;;;1.04;100.00;98874.03;4191688;28;20044;-75
2023/02/02 08:41:53;;;;;;;1.85;1.00;;;;;;;1.08;100.00;98885.94;4191798;28;20484;-75
2023/02/02 08:43:54;;;;;;;1.65;1.00;;;;;;;1.06;100.00;98877.25;4194492;28;20109;-74
2023/02/02 08:45:54;;;;;;;2.35;1.10;;;;;;;1.08;100.00;98877.78;4191513;28;20048;-75
2023/02/02 08:47:54;;;;;;;3.25;1.17;;;;;;;0.96;100.00;98885.66;4197436;28;20040;-75
2023/02/02 08:49:55;;;;;;;6.43;1.35;;;;;;;1.02;100.00;98894.53;4189809;28;20507;-75
2023/02/02 08:51:55;;;;;;;3.47;0.90;;;;;;;0.94;100.00;98887.06;4191721;28;20059;-75
2023/02/02 08:53:55;;;;;;;3.90;1.25;;;;;;;0.91;100.00;98885.78;4190721;28;20029;-75
2023/02/02 08:55:59;;;;;;;4.45;0.90;;;;;;;0.90;100.00;98889.59;4193137;28;20427;-75
2023/02/02 08:57:59;;;;;;;4.70;1.20;;;;;;;0.86;100.00;98906.88;4191045;28;20068;-75
2023/02/02 08:59:59;;;;;;;1.52;1.05;;;;;;;0.87;100.00;98890.22;4191366;28;20040;-75
2023/02/02 09:02:00;;;;;;;3.83;1.10;;;;;;;0.86;100.00;98880.44;4191300;28;20415;-75
2023/02/02 09:04:12;;;;;;;2.88;0.82;;;;;;;0.86;100.00;98885.88;4192595;28;20044;-75
2023/02/02 09:06:15;;;;;;;1.40;1.02;;;;;;;0.82;100.00;98888.38;4191387;28;20086;-75
2023/02/02 09:08:16;;;;;;;1.45;0.90;;;;;;;0.85;100.00;98889.72;4194360;28;20020;-75
2023/02/02 09:10:16;;;;;;;7.82;2.03;;;;;;;0.85;100.00;98892.44;4192176;28;20487;-75
2023/02/02 09:12:17;;;;;;;2.88;1.10;;;;;;;0.84;100.00;98897.06;4190996;28;20016;-75
2023/02/02 09:14:17;;;;;;;1.80;1.00;;;;;;;0.78;100.00;98894.75;4195104;28;20385;-75
2023/02/02 09:16:18;;;;;;;3.70;1.20;;;;;;;0.73;100.00;98906.53;4191587;28;20028;-75
2023/02/02 09:18:18;;;;;;;3.45;1.33;;;;;;;0.62;100.00;98901.63;4189995;28;20547;-75
2023/02/02 09:20:19;;;;;;;5.93;2.60;;;;;;;0.64;100.00;98907.56;4191338;28;20381;-75
2023/02/02 09:22:20;;;;;;;17.05;6.88;;;;;;;0.67;100.00;98907.78;4190950;28;20056;-75
2023/02/02 09:24:20;;;;;;;56.35;18.65;;;;;;;0.60;100.00;98912.00;4191867;28;20043;-76
2023/02/02 09:26:25;;;;;;;34.10;12.02;;;;;;;0.60;100.00;98920.19;4197019;28;20121;-75
2023/02/02 09:28:26;;;;;;;10.98;5.10;;;;;;;0.56;100.00;98923.47;4190653;28;20048;-75
2023/02/02 09:30:26;;;;;;;6.88;3.78;;;;;;;0.59;100.00;98921.28;4191244;28;20117;-76
2023/02/02 09:32:26;;;;;;;4.95;2.58;;;;;;;0.67;100.00;98917.88;4190578;28;20514;-75
2023/02/02 09:34:27;;;;;;;8.27;4.03;;;;;;;0.64;100.00;98924.69;4190539;28;20432;-76
2023/02/02 09:36:27;;;;;;;6.15;3.35;;;;;;;0.67;100.00;98934.22;4191371;28;20326;-75
2023/02/02 09:38:27;;;;;;;5.10;2.20;;;;;;;0.69;100.00;98927.34;4190592;28;20385;-76
2023/02/02 09:40:31;;;;;;;3.65;2.63;;;;;;;0.70;100.00;98941.75;4191512;28;20127;-76
2023/02/02 09:42:49;;;;;;;2.97;2.28;;;;;;;0.65;100.00;98941.84;4191122;28;20044;-75
2023/02/02 09:44:58;;;;;;;6.90;3.92;;;;;;;0.70;100.00;98944.47;4191582;28;20077;-76
2023/02/02 09:47:20;;;;;;;6.45;3.10;;;;;;;0.74;100.00;98948.22;4190834;28;20123;-75